Latest Coastal Weather Observations for East Sale Airport

IDV60701

Issued at 12:21 pm EST Thursday 28 May 2020 (issued every 10 minutes, with the page automatically refreshed every 10 minutes)

About coastal observations | Map of coastal stations | Coastal observations for VIC | Marine services | Other Formats
Station Details ID: 085314 Name: EAST SALE AIRPORT Lat: -38.10 Lon: 147.14 Height: 5.3 m
Data from the previous 72 hours. | See also: Recent months at East Sale Airport
Date/Time
EST
Wind Sea
Height
m
Swell Vis
km
Cloud Weather Temp
°C
Press
hPa
Rain since
9am
mm
Dir  Spd
kts
Gust
kts
Height
m
Period
s
Dir
28/12:00pm SW 5 8 - - - - 10 Mostly clear - 16.6 1020.7 0.0
28/11:30am W 5 7 - - - - 10 Mostly clear - 16.3 1021.0 0.0
28/11:00am W 6 9 - - - - 10 Partly cloudy - 15.6 1021.3 0.0
28/10:30am W 6 8 - - - - 10 Cloudy - 15.1 1021.4 0.0
28/10:00am WNW 5 6 - - - - 10 Cloudy - 13.7 1021.2 0.0
28/09:30am WNW 4 6 - - - - 10 Partly cloudy - 12.4 1021.1 0.0
28/09:00am WNW 6 7 - - - - 10 - - 10.8 1021.1 0.0
28/08:30am SW 3 5 - - - - 10 Mostly clear - 8.7 1020.9 0.0
28/08:00am SW 4 7 - - - - 10 Partly cloudy - 8.0 1020.7 0.0
28/07:30am NW 6 7 - - - - 10 - Shallow fog 7.5 1020.6 0.0
28/07:00am NNW 6 7 - - - - 10 - - 7.5 1020.3 0.0
28/06:30am NW 7 8 - - - - 10 Partly cloudy - 8.2 1020.1 0.0
28/06:00am NW 6 7 - - - - 10 Mostly cloudy - 8.9 1019.9 0.0
28/05:30am NW 7 8 - - - - 10 Cloudy - 8.7 1019.7 0.0
28/05:00am NW 6 7 - - - - 10 Cloudy - 8.2 1019.6 0.0
28/04:30am WNW 6 8 - - - - 10 Partly cloudy - 8.9 1019.5 0.0
28/04:00am NW 7 8 - - - - 10 - - 8.2 1019.2 0.0
28/03:30am WNW 6 7 - - - - 10 - - 9.3 1019.0 0.0
28/03:00am NW 7 9 - - - - 10 Mostly clear - 9.2 1018.9 0.0
28/02:30am W 7 8 - - - - 10 - - 10.0 1018.9 0.0
28/02:00am W 7 9 - - - - 10 Partly cloudy - 10.5 1018.7 0.0
28/01:30am W 8 10 - - - - 10 - - 11.3 1018.5 0.0
28/01:00am W 8 9 - - - - 10 - - 10.9 1018.6 0.0
28/12:30am NW 6 6 - - - - 10 Partly cloudy - 10.3 1018.6 0.0
28/12:00am WNW 5 6 - - - - 10 Cloudy - 11.4 1018.5 0.0
 
Date/Time
EST
Wind Sea
Height
m
Swell Vis
km
Cloud Weather Temp
°C
Press
hPa
Rain since
9am
mm
Dir  Spd
kts
Gust
kts
Height
m
Period
s
Dir
27/11:30pm WNW 7 9 - - - - 10 - - 11.5 1018.5 0.0
27/11:00pm NW 4 5 - - - - 10 - - 11.1 1018.6 0.0
27/10:30pm NNW 4 6 - - - - 10 Cloudy - 11.3 1018.7 0.0
27/10:00pm NNW 5 5 - - - - 10 Cloudy - 11.0 1018.7 0.0
27/09:30pm WSW 1 6 - - - - 10 Cloudy - 11.7 1018.8 0.0
27/09:00pm WSW 4 5 - - - - 10 Cloudy - 11.8 1018.8 0.0
27/08:30pm SW 3 3 - - - - 10 Cloudy - 12.0 1018.8 0.0
27/08:00pm SSE 1 5 - - - - 10 Partly cloudy - 11.9 1018.9 0.0
27/07:30pm SE 1 3 - - - - 10 Partly cloudy - 12.4 1018.9 0.0
27/07:00pm SE 3 4 - - - - 10 Cloudy - 12.4 1018.6 0.0
27/06:30pm SE 3 4 - - - - 10 Partly cloudy - 12.3 1018.6 0.0
27/06:00pm CALM 0 4 - - - - 10 Cloudy - 12.8 1018.4 0.0
27/05:30pm CALM 0 3 - - - - 10 Partly cloudy - 13.5 1018.2 0.0
27/05:00pm SSE 5 6 - - - - 10 - - 13.9 1018.0 0.0
27/04:30pm SE 4 4 - - - - 10 Partly cloudy - 15.2 1018.0 0.0
27/04:00pm ESE 5 6 - - - - 10 Partly cloudy - 15.9 1018.0 0.0
27/03:30pm E 5 6 - - - - 10 - - 16.1 1018.1 0.0
27/03:00pm E 6 8 - - - - 10 Cloudy - 16.4 1018.1 0.0
27/02:30pm ENE 7 8 - - - - 10 - - 16.1 1018.3 0.0
27/02:00pm NE 6 7 - - - - 10 - - 16.0 1018.6 0.0
27/01:30pm ENE 4 6 - - - - 10 - - 16.8 1018.9 0.0
27/01:00pm ENE 4 5 - - - - 10 - - 15.9 1019.1 0.0
27/12:30pm ESE 3 6 - - - - 10 Partly cloudy - 15.4 1019.5 0.0
27/12:00pm CALM 0 3 - - - - 10 Cloudy - 13.2 1020.2 0.0
27/11:30am N 3 4 - - - - 10 - - 12.9 1020.7 0.0
27/11:11am NW 3 5 - - - - 10 Mostly clear - 11.6 1021.1 0.0
27/11:00am NW 4 6 - - - - 10 Mostly clear - 10.7 1021.2 0.0
27/10:50am WNW 5 7 - - - - 10 Partly cloudy Fog 9.8 1021.4 0.0
27/10:30am NW 5 6 - - - - 3 Mostly cloudy Fog 8.7 1021.6 0.0
27/10:22am NNW 5 6 - - - - 0.8 Partly cloudy Fog 8.7 1021.6 0.0
27/10:15am N 5 5 - - - - 6 Partly cloudy Fog 9.0 1021.6 0.0
27/10:00am NW 4 6 - - - - 10 Partly cloudy - 8.6 1021.6 0.0
27/09:30am WNW 4 4 - - - - 2 Mostly clear Fog 8.1 1021.5 0.0
27/09:00am WNW 1 3 - - - - 10 Partly cloudy - 7.5 1021.4 0.2
27/08:30am CALM 0 0 - - - - 9 - - 5.8 1021.5 0.2
27/08:00am NW 5 7 - - - - 9 Mostly clear - 4.9 1021.4 0.2
27/07:30am CALM 0 0 - - - - 9 - - 4.7 1021.1 0.2
27/07:27am CALM 0 0 - - - - 8 - - 4.9 1021.1 0.2
27/07:00am CALM 0 0 - - - - 2 Partly cloudy - 5.0 1021.0 0.2
27/06:30am SW 4 5 - - - - 0.6 Cloudy - 5.0 1021.0 0.2
27/06:00am WSW 4 6 - - - - 0.5 Cloudy Recent precip. 5.0 1021.0 0.2
27/05:30am NW 1 3 - - - - 0.6 Cloudy - 5.2 1020.9 0.2
27/05:00am NNW 2 3 - - - - 0.4 Cloudy - 5.2 1020.9 0.0
27/04:30am CALM 0 3 - - - - 0.7 Cloudy - 5.4 1020.9 0.0
27/04:00am CALM 0 0 - - - - 0.3 Cloudy - 6.1 1020.9 0.0
27/03:30am CALM 0 1 - - - - 0.6 Cloudy - 6.4 1021.1 0.0
27/03:00am CALM 0 0 - - - - 0.2 Cloudy Rain 6.9 1021.3 0.0
27/02:30am NW 4 5 - - - - 0.2 Cloudy - 6.8 1021.5 0.0
27/02:00am NW 3 4 - - - - 0.3 Cloudy - 6.7 1021.7 0.0
27/01:30am NW 4 5 - - - - 0.2 Cloudy - 6.7 1022.0 0.0
27/01:00am NW 2 4 - - - - 0.4 Cloudy - 6.7 1022.1 0.0
27/12:30am NW 3 4 - - - - 0.2 Cloudy - 6.8 1022.4 0.0
27/12:00am NNW 4 5 - - - - 0.5 Cloudy - 7.2 1022.4 0.0
 
Date/Time
EST
Wind Sea
Height
m
Swell Vis
km
Cloud Weather Temp
°C
Press
hPa
Rain since
9am
mm
Dir  Spd
kts
Gust
kts
Height
m
Period
s
Dir
26/11:30pm NNW 5 6 - - - - 3 Partly cloudy - 7.7 1022.9 0.0
26/11:29pm NNW 5 6 - - - - 4 Partly cloudy - 7.7 1022.9 0.0
26/11:27pm NNW 4 5 - - - - 6 Partly cloudy - 7.6 1022.9 0.0
26/11:25pm NNW 4 6 - - - - 7 Partly cloudy - 7.5 1022.9 0.0
26/11:00pm NNW 4 6 - - - - 2 Partly cloudy - 7.0 1023.0 0.0
26/10:30pm NNW 4 6 - - - - 2 Partly cloudy - 5.7 1023.0 0.0
26/10:00pm W 3 3 - - - - 2 Partly cloudy - 6.7 1023.2 0.0
26/09:30pm WNW 3 4 - - - - 2 - Mist 6.4 1023.6 0.0
26/09:00pm SSW 4 4 - - - - 4 - - 7.4 1023.6 0.0
26/08:30pm SSW 3 4 - - - - 7 - - 8.1 1023.7 0.0
26/08:06pm SSW 2 3 - - - - 5 - - 9.3 1023.6 0.0
26/08:00pm SSW 2 4 - - - - 6 - - 9.4 1023.6 0.0
26/07:38pm SSE 4 4 - - - - 6 - - 7.5 1023.5 0.0
26/07:30pm SE 3 4 - - - - 10 - - 7.8 1023.4 0.0
26/07:00pm ENE 2 4 - - - - 10 - - 8.6 1023.4 0.0
26/06:30pm ENE 3 4 - - - - 10 - - 10.2 1023.4 0.0
26/06:00pm ENE 3 3 - - - - 10 - - 10.6 1023.2 0.0
26/05:30pm ENE 4 5 - - - - 10 Mostly clear - 11.4 1023.0 0.0
26/05:00pm ENE 7 9 - - - - 10 Mostly clear - 12.2 1022.8 0.0
26/04:30pm E 10 12 - - - - 10 Mostly clear - 13.5 1022.9 0.0
26/04:00pm E 12 15 - - - - 10 Mostly clear - 14.2 1023.0 0.0
26/03:30pm E 13 16 - - - - 10 Partly cloudy - 14.0 1023.1 0.0
26/03:00pm E 12 15 - - - - 10 Mostly cloudy - 14.2 1023.2 0.0
26/02:30pm E 13 17 - - - - 10 Partly cloudy - 14.2 1023.5 0.0
26/02:00pm E 15 19 - - - - 10 Partly cloudy - 15.0 1023.6 0.0
26/01:30pm E 12 15 - - - - 10 Mostly clear - 15.4 1024.1 0.0
26/01:00pm E 9 12 - - - - 10 Mostly clear - 15.0 1024.5 0.0
26/12:30pm ENE 4 7 - - - - 10 Partly cloudy - 14.2 1025.1 0.0
26/12:00pm ENE 3 6 - - - - 10 Mostly clear - 14.0 1025.6 0.0
26/11:30am ENE 3 8 - - - - 10 Mostly clear - 13.4 1026.1 0.0
26/11:00am NNW 5 6 - - - - 10 Mostly clear - 12.1 1026.9 0.0
26/10:30am N 4 6 - - - - 10 Mostly clear - 12.1 1027.3 0.0
26/10:00am ENE 4 5 - - - - 10 Mostly clear - 11.1 1027.3 0.0
26/09:30am ESE 3 4 - - - - 9 Partly cloudy - 10.2 1027.5 0.0
26/09:00am CALM 0 0 - - - - 4 Cloudy Rain 9.0 1027.5 0.6
26/08:30am CALM 0 0 - - - - 0.3 Mostly cloudy Fog 8.1 1027.4 0.6
26/08:00am NW 1 3 - - - - 0.6 Cloudy - 6.6 1027.4 0.6
26/07:30am NNW 2 3 - - - - 0.5 Cloudy Fog 6.2 1027.1 0.6
26/07:00am SSW 4 9 - - - - 0.4 Cloudy - 5.1 1026.9 0.6
26/06:30am SE 3 4 - - - - 0.5 Cloudy - 5.9 1026.3 0.6
26/06:00am SE 5 5 - - - - 0.5 Mostly cloudy - 4.6 1026.1 0.4
26/05:30am SE 3 4 - - - - 0.7 Cloudy - 5.1 1026.1 0.4
26/05:06am CALM 0 0 - - - - 1 Partly cloudy - 5.8 1026.2 0.4
26/05:00am CALM 0 0 - - - - 0.6 Partly cloudy - 6.1 1026.2 0.4
26/04:30am CALM 0 0 - - - - 1 Cloudy - 6.5 1026.2 0.4
26/04:15am CALM 0 0 - - - - 1 Partly cloudy - 6.6 1026.1 0.4
26/04:00am CALM 0 0 - - - - 0.8 Partly cloudy - 7.1 1026.1 0.4
26/03:30am ESE 2 3 - - - - 0.7 Partly cloudy - 6.4 1026.3 0.4
26/03:16am ESE 3 3 - - - - 0.5 Partly cloudy - 6.7 1026.4 0.4
26/03:00am ESE 2 3 - - - - 0.5 Partly cloudy - 7.6 1026.4 0.4
26/02:30am ESE 4 5 - - - - 0.8 Partly cloudy - 7.8 1026.3 0.4
26/02:00am NE 3 4 - - - - 0.9 Partly cloudy - 7.8 1026.5 0.4
26/01:30am E 3 4 - - - - 0.7 Cloudy - 8.5 1026.5 0.4
26/01:00am E 4 5 - - - - 2 Partly cloudy - 8.6 1026.9 0.4
26/12:35am NE 5 7 - - - - 6 Partly cloudy - 9.3 1027.1 0.4
26/12:30am ENE 6 7 - - - - 10 Partly cloudy - 9.2 1027.2 0.4
26/12:26am ENE 5 7 - - - - 10 Partly cloudy - 8.7 1027.3 0.4
26/12:00am NE 3 4 - - - - 1 Partly cloudy - 7.7 1027.2 0.4
 
Date/Time
EST
Wind Sea
Height
m
Swell Vis
km
Cloud Weather Temp
°C
Press
hPa
Rain since
9am
mm
Dir  Spd
kts
Gust
kts
Height
m
Period
s
Dir
25/11:31pm ENE 4 4 - - - - 6 Partly cloudy - 7.6 1027.4 0.4
25/11:30pm ENE 4 5 - - - - 10 Partly cloudy - 7.6 1027.4 0.4
25/11:00pm ESE 4 4 - - - - 10 Partly cloudy - 8.0 1027.7 0.4
25/10:30pm S 4 6 - - - - 10 Partly cloudy - 8.0 1027.7 0.4
25/10:00pm NNW 2 4 - - - - 10 Partly cloudy - 8.1 1027.6 0.4
25/09:30pm CALM 0 0 - - - - 10 Partly cloudy - 8.1 1027.4 0.4
25/09:00pm CALM 0 0 - - - - 10 Partly cloudy - 7.5 1027.2 0.4
25/08:42pm NNE 4 5 - - - - 10 - - 7.9 1027.1 0.4
25/08:30pm NNE 5 6 - - - - 6 - - 8.3 1027.1 0.4
25/08:26pm NE 5 6 - - - - 6 - - 7.5 1027.1 0.4
25/08:00pm ESE 2 3 - - - - 10 Partly cloudy - 9.2 1026.8 0.4
25/07:30pm SSE 5 6 - - - - 10 Cloudy - 9.9 1026.7 0.4
25/07:00pm SSE 1 5 - - - - 10 Partly cloudy - 9.8 1026.5 0.4
25/06:30pm S 4 5 - - - - 10 - - 9.0 1026.4 0.4
25/06:00pm SSE 6 7 - - - - 10 - - 9.6 1026.2 0.4
25/05:30pm SE 8 11 - - - - 10 Partly cloudy - 11.3 1025.9 0.4
25/05:00pm SE 7 9 - - - - 10 Mostly clear - 12.1 1025.7 0.4
25/04:30pm SE 7 10 - - - - 10 Mostly clear - 12.5 1025.6 0.4
25/04:00pm SE 10 13 - - - - 10 Mostly clear - 13.0 1025.5 0.4
25/03:30pm E 7 12 - - - - 10 Mostly clear - 13.3 1025.3 0.4
25/03:00pm SE 9 11 - - - - 10 Cloudy Showers 13.2 1025.4 0.4
25/02:30pm ESE 10 13 - - - - 10 Mostly clear - 13.5 1025.4 0.4
25/02:00pm ESE 10 13 - - - - 10 Mostly clear - 13.8 1025.4 0.4
25/01:30pm ESE 7 10 - - - - 10 Mostly clear - 13.5 1025.5 0.4
25/01:24pm ESE 7 9 - - - - 10 Partly cloudy - 13.0 1025.6 0.4
25/01:10pm SE 10 15 - - - - 5 Partly cloudy Showers 12.8 1025.7 0.0
25/01:00pm SE 10 13 - - - - 10 Mostly clear - 13.2 1025.7 0.0
25/12:41pm SSE 10 14 - - - - 8 Mostly clear - 12.3 1025.9 0.0
25/12:30pm SE 13 17 - - - - 5 Partly cloudy Drizzle 12.1 1026.0 0.0

Other formats

Comma delimited format used in spreadsheet applications
http://www.bom.gov.au/fwo/IDV60701/IDV60701.95907.axf

JavaScript Object Notation format (JSON) in row-major order
http://www.bom.gov.au/fwo/IDV60701/IDV60701.95907.json

Data quality

Most of these data are generated automatically and are frequently updated. Quality checks on data are not normally performed. It is possible for incorrect values to appear. Refer to information at About Latest Weather Observations and please check the disclaimer before using these data.